createdAt,value
2023-04-16T00:00:55.276Z,8.74
2023-04-16T00:03:21.793Z,8.75
2023-04-16T00:05:48.212Z,8.75
2023-04-16T00:08:14.592Z,8.69
2023-04-16T00:10:41.321Z,8.63
2023-04-16T00:13:07.636Z,8.71
2023-04-16T00:15:34.056Z,8.69
2023-04-16T00:18:00.410Z,8.70
2023-04-16T00:20:26.785Z,8.68
2023-04-16T00:22:53.175Z,8.63
2023-04-16T00:25:19.560Z,8.62
2023-04-16T00:27:45.869Z,8.54
2023-04-16T00:30:12.457Z,8.58
2023-04-16T00:32:38.874Z,8.57
2023-04-16T00:35:05.738Z,8.52
2023-04-16T00:37:32.258Z,8.52
2023-04-16T00:39:58.737Z,8.56
2023-04-16T00:42:25.049Z,8.43
2023-04-16T00:44:51.527Z,8.42
2023-04-16T00:47:19.753Z,8.36
2023-04-16T00:49:46.643Z,8.45
2023-04-16T00:52:13.041Z,8.41
2023-04-16T00:54:39.848Z,8.39
2023-04-16T00:57:06.229Z,8.35
2023-04-16T00:59:32.764Z,8.44
2023-04-16T01:01:59.206Z,8.43
2023-04-16T01:04:25.735Z,8.50
2023-04-16T01:06:52.088Z,8.46
2023-04-16T01:09:18.515Z,8.51
2023-04-16T01:11:44.839Z,8.50
2023-04-16T01:14:11.372Z,8.52
2023-04-16T01:16:37.681Z,8.49
2023-04-16T01:19:04.010Z,8.54
2023-04-16T01:21:30.319Z,8.49
2023-04-16T01:23:56.614Z,8.48
2023-04-16T01:26:22.997Z,8.53
2023-04-16T01:28:49.300Z,8.50
2023-04-16T01:31:15.646Z,8.46
2023-04-16T01:33:42.011Z,8.50
2023-04-16T01:36:08.343Z,8.46
2023-04-16T01:38:34.709Z,8.42
2023-04-16T01:41:01.067Z,8.48
2023-04-16T01:43:27.393Z,8.42
2023-04-16T01:46:12.181Z,8.47
2023-04-16T01:48:38.586Z,8.43
2023-04-16T01:51:05.335Z,8.38
2023-04-16T01:53:31.670Z,8.32
2023-04-16T01:55:57.962Z,8.26
2023-04-16T01:58:24.269Z,8.31
2023-04-16T02:00:50.622Z,8.31
2023-04-16T02:03:17.087Z,8.33
2023-04-16T02:05:43.506Z,8.29
2023-04-16T02:08:09.833Z,8.21
2023-04-16T02:10:36.149Z,8.21
2023-04-16T02:13:02.467Z,8.15
2023-04-16T02:15:28.856Z,8.19
2023-04-16T02:17:55.174Z,8.10
2023-04-16T02:20:21.537Z,8.07
2023-04-16T02:22:47.950Z,8.08
2023-04-16T02:25:14.313Z,8.13
2023-04-16T02:27:40.632Z,8.15
2023-04-16T02:30:07.640Z,8.13
2023-04-16T02:32:33.947Z,8.15
2023-04-16T02:35:00.247Z,8.17
2023-04-16T02:37:26.545Z,8.20
2023-04-16T02:39:52.859Z,8.23
2023-04-16T02:42:19.156Z,8.27
2023-04-16T02:44:45.461Z,8.30
2023-04-16T02:47:11.752Z,8.23
2023-04-16T02:49:38.071Z,8.31
2023-04-16T02:52:04.553Z,8.21
2023-04-16T02:54:30.845Z,8.10
2023-04-16T02:56:57.160Z,8.24
2023-04-16T02:59:23.444Z,8.28
2023-04-16T03:01:49.923Z,8.20
2023-04-16T03:04:16.479Z,8.33
2023-04-16T03:06:42.819Z,8.27
2023-04-16T03:09:09.413Z,8.26
2023-04-16T03:11:35.920Z,8.22
2023-04-16T03:14:02.236Z,8.23
2023-04-16T03:16:28.545Z,8.20
2023-04-16T03:18:54.856Z,8.25
2023-04-16T03:21:21.170Z,8.20
2023-04-16T03:23:47.479Z,8.26
2023-04-16T03:26:13.785Z,8.31
2023-04-16T03:28:40.072Z,8.23
2023-04-16T03:31:06.442Z,8.24
2023-04-16T03:33:32.799Z,8.22
2023-04-16T03:35:59.228Z,8.08
2023-04-16T03:38:26.003Z,8.06
2023-04-16T03:40:52.310Z,7.93
2023-04-16T03:43:18.633Z,7.87
2023-04-16T03:45:45.648Z,7.75
2023-04-16T03:48:12.153Z,7.73
2023-04-16T03:50:38.610Z,7.69
2023-04-16T03:53:04.931Z,7.69
2023-04-16T03:55:31.232Z,7.65
2023-04-16T03:57:57.532Z,7.61
2023-04-16T04:00:23.852Z,7.57
2023-04-16T04:02:50.290Z,7.63
2023-04-16T04:05:16.741Z,7.51
2023-04-16T04:07:43.044Z,7.49
2023-04-16T04:10:09.593Z,7.44
2023-04-16T04:12:35.888Z,7.44
2023-04-16T04:15:02.205Z,7.46
2023-04-16T04:17:28.523Z,7.38
2023-04-16T04:22:26.620Z,7.45
2023-04-16T04:24:52.937Z,7.45
2023-04-16T04:27:19.260Z,7.50
2023-04-16T04:29:45.571Z,7.42
2023-04-16T04:32:11.885Z,7.44
2023-04-16T04:34:38.201Z,7.38
2023-04-16T04:37:04.545Z,7.41
2023-04-16T04:39:30.861Z,7.42
2023-04-16T04:41:57.439Z,7.41
2023-04-16T04:44:23.753Z,7.34
2023-04-16T04:46:50.035Z,7.27
2023-04-16T04:49:16.355Z,7.21
2023-04-16T04:51:42.652Z,7.20
2023-04-16T04:54:08.957Z,7.22
2023-04-16T04:56:35.268Z,7.26
2023-04-16T04:59:01.568Z,7.39
2023-04-16T05:01:27.946Z,7.34
2023-04-16T05:03:54.280Z,7.29
2023-04-16T05:06:20.668Z,7.33
2023-04-16T05:08:46.970Z,7.34
2023-04-16T05:11:13.297Z,7.35
2023-04-16T05:13:39.613Z,7.36
2023-04-16T05:16:06.438Z,7.41
2023-04-16T05:18:32.783Z,7.36
2023-04-16T05:20:59.110Z,7.31
2023-04-16T05:23:25.431Z,7.32
2023-04-16T05:25:51.749Z,7.29
2023-04-16T05:28:18.036Z,7.22
2023-04-16T05:30:44.409Z,7.17
2023-04-16T05:33:10.759Z,7.25
2023-04-16T05:35:37.071Z,7.31
2023-04-16T05:38:03.486Z,7.34
2023-04-16T05:40:30.130Z,7.22
2023-04-16T05:42:56.443Z,7.21
2023-04-16T05:45:22.735Z,7.33
2023-04-16T05:47:49.142Z,7.32
2023-04-16T05:50:15.576Z,7.21
2023-04-16T05:52:41.888Z,7.22
2023-04-16T05:55:08.606Z,7.18
2023-04-16T05:57:34.914Z,7.29
2023-04-16T06:00:01.218Z,7.30
2023-04-16T06:02:27.635Z,7.30
2023-04-16T06:04:54.084Z,7.19
2023-04-16T06:07:20.401Z,7.25
2023-04-16T06:09:46.705Z,7.33
2023-04-16T06:12:13.084Z,7.29
2023-04-16T06:14:39.392Z,7.21
2023-04-16T06:17:05.715Z,7.26
2023-04-16T06:19:32.048Z,7.21
2023-04-16T06:21:58.356Z,7.27
2023-04-16T06:24:24.678Z,7.22
2023-04-16T06:26:51.034Z,7.30
2023-04-16T06:29:17.362Z,7.39
2023-04-16T06:31:43.697Z,7.05
2023-04-16T06:34:10.280Z,7.12
2023-04-16T06:36:36.578Z,7.37
2023-04-16T06:39:03.000Z,7.37
2023-04-16T06:41:29.923Z,7.51
2023-04-16T06:43:56.227Z,7.63
2023-04-16T06:46:22.555Z,7.78
2023-04-16T06:48:49.024Z,7.67
2023-04-16T06:51:15.364Z,7.39
2023-04-16T06:53:41.753Z,7.30
2023-04-16T06:56:08.260Z,7.35
2023-04-16T06:58:34.580Z,7.54
2023-04-16T07:01:01.000Z,7.55
2023-04-16T07:03:27.520Z,7.93
2023-04-16T07:05:53.991Z,7.84
2023-04-16T07:08:20.311Z,7.68
2023-04-16T07:10:46.613Z,7.85
2023-04-16T07:13:12.934Z,7.83
2023-04-16T07:15:39.250Z,7.65
2023-04-16T07:18:05.579Z,7.58
2023-04-16T07:20:31.933Z,7.85
2023-04-16T07:22:58.263Z,7.55
2023-04-16T07:25:24.748Z,7.88
2023-04-16T07:27:51.041Z,8.02
2023-04-16T07:30:17.359Z,7.96
2023-04-16T07:32:43.788Z,8.08
2023-04-16T07:35:10.121Z,8.11
2023-04-16T07:37:36.422Z,8.20
2023-04-16T07:40:02.775Z,8.25
2023-04-16T07:42:29.081Z,8.32
2023-04-16T07:44:55.544Z,8.29
2023-04-16T07:47:21.912Z,8.36
2023-04-16T07:49:49.059Z,8.19
2023-04-16T07:52:15.490Z,8.23
2023-04-16T07:54:41.829Z,8.37
2023-04-16T07:57:08.138Z,8.48
2023-04-16T07:59:34.432Z,8.80
2023-04-16T08:02:00.879Z,9.07
2023-04-16T08:04:27.458Z,8.71
2023-04-16T08:06:54.244Z,8.72
2023-04-16T08:09:22.755Z,8.85
2023-04-16T08:11:49.479Z,8.96
2023-04-16T08:14:18.868Z,9.06
2023-04-16T08:16:45.231Z,8.77
2023-04-16T08:19:11.784Z,8.85
2023-04-16T08:21:38.424Z,8.57
2023-04-16T08:24:04.861Z,8.59
2023-04-16T08:26:31.217Z,8.54
2023-04-16T08:28:57.525Z,8.60
2023-04-16T08:31:24.044Z,8.87
2023-04-16T08:33:50.358Z,9.02
2023-04-16T08:36:16.682Z,9.27
2023-04-16T08:38:42.962Z,9.19
2023-04-16T08:41:12.402Z,9.36
2023-04-16T08:43:43.884Z,9.41
2023-04-16T08:46:11.493Z,9.54
2023-04-16T08:48:38.721Z,9.73
2023-04-16T08:51:07.147Z,10.00
2023-04-16T08:53:36.385Z,9.71
2023-04-16T08:56:09.717Z,9.10
2023-04-16T08:58:37.441Z,9.32
2023-04-16T09:01:03.993Z,9.27
2023-04-16T09:03:35.665Z,9.24
2023-04-16T09:06:04.303Z,9.27
2023-04-16T09:08:31.890Z,9.32
2023-04-16T09:10:59.312Z,9.28
2023-04-16T09:13:25.661Z,9.16
2023-04-16T09:15:53.609Z,9.03
2023-04-16T09:18:20.412Z,9.12
2023-04-16T09:20:48.585Z,8.92
2023-04-16T09:23:14.906Z,8.65
2023-04-16T09:25:41.220Z,9.01
2023-04-16T09:28:07.545Z,9.07
2023-04-16T09:30:33.865Z,9.04
2023-04-16T09:33:19.844Z,9.31
2023-04-16T09:35:50.951Z,9.23
2023-04-16T09:38:18.387Z,9.37
2023-04-16T09:40:44.907Z,9.38
2023-04-16T09:43:17.450Z,9.38
2023-04-16T09:45:54.766Z,9.04
2023-04-16T09:48:31.938Z,9.27
2023-04-16T09:50:59.737Z,9.71
2023-04-16T09:53:31.555Z,9.65
2023-04-16T09:56:05.252Z,9.77
2023-04-16T09:58:31.903Z,9.49
2023-04-16T10:01:12.243Z,9.67
2023-04-16T10:03:40.412Z,9.74
2023-04-16T10:06:13.763Z,9.50
2023-04-16T10:08:53.591Z,9.36
2023-04-16T10:11:20.685Z,9.17
2023-04-16T10:13:47.503Z,9.17
2023-04-16T10:16:13.893Z,9.19
2023-04-16T10:18:42.244Z,9.05
2023-04-16T10:21:09.095Z,9.05
2023-04-16T10:23:35.395Z,9.07
2023-04-16T10:26:02.308Z,8.86
2023-04-16T10:28:28.789Z,9.02
2023-04-16T10:30:57.372Z,8.98
2023-04-16T10:33:27.757Z,9.09
2023-04-16T10:36:16.797Z,9.05
2023-04-16T10:38:53.473Z,8.92
2023-04-16T10:41:20.414Z,8.86
2023-04-16T10:43:49.288Z,8.95
2023-04-16T10:46:19.335Z,8.92
2023-04-16T10:48:50.260Z,8.71
2023-04-16T10:51:25.778Z,8.75
2023-04-16T10:53:53.729Z,8.85
2023-04-16T10:56:26.681Z,8.77
2023-04-16T10:58:54.585Z,8.82
2023-04-16T11:01:29.769Z,8.88
2023-04-16T11:03:56.375Z,8.99
2023-04-16T11:06:27.042Z,9.08
2023-04-16T11:08:55.231Z,8.89
2023-04-16T11:11:22.877Z,8.92
2023-04-16T11:13:49.331Z,8.88
2023-04-16T11:16:16.974Z,8.63
2023-04-16T11:18:51.387Z,8.64
2023-04-16T11:21:19.170Z,8.77
2023-04-16T11:23:49.829Z,8.81
2023-04-16T11:26:27.559Z,8.80
2023-04-16T11:28:55.500Z,8.77
2023-04-16T11:31:22.546Z,8.89
2023-04-16T11:33:49.396Z,8.97
2023-04-16T11:36:15.726Z,8.96
2023-04-16T11:38:42.083Z,9.01
2023-04-16T11:41:09.331Z,9.17
2023-04-16T11:43:35.736Z,9.28
2023-04-16T11:46:10.296Z,9.33
2023-04-16T11:48:47.663Z,9.20
2023-04-16T11:51:14.254Z,9.16
2023-04-16T11:53:54.021Z,9.17
2023-04-16T11:56:32.128Z,9.05
2023-04-16T11:59:13.225Z,9.11
2023-04-16T12:01:41.409Z,9.08
2023-04-16T12:04:09.029Z,9.07
2023-04-16T12:06:35.649Z,9.39
2023-04-16T12:09:22.511Z,9.57
2023-04-16T12:11:48.832Z,9.61
2023-04-16T12:14:15.145Z,9.53
2023-04-16T12:16:41.564Z,9.43
2023-04-16T12:19:12.286Z,9.49
2023-04-16T12:21:41.255Z,9.57
2023-04-16T12:24:09.556Z,9.35
2023-04-16T12:26:44.187Z,9.37
2023-04-16T12:29:26.578Z,9.66
2023-04-16T12:31:54.166Z,9.86
2023-04-16T12:34:21.562Z,9.99
2023-04-16T12:37:06.961Z,10.06
2023-04-16T12:39:33.272Z,10.15
2023-04-16T12:41:59.572Z,10.13
2023-04-16T12:44:26.343Z,10.14
2023-04-16T12:46:52.658Z,10.46
2023-04-16T12:49:18.958Z,10.35
2023-04-16T12:51:45.292Z,10.27
2023-04-16T12:54:11.601Z,10.34
2023-04-16T12:56:37.970Z,10.82
2023-04-16T12:59:04.313Z,10.48
2023-04-16T13:01:30.695Z,10.49
2023-04-16T13:03:57.281Z,10.65
2023-04-16T13:06:23.836Z,10.73
2023-04-16T13:08:50.136Z,10.76
2023-04-16T13:11:16.485Z,10.63
2023-04-16T13:13:42.775Z,10.55
2023-04-16T13:16:09.095Z,10.58
2023-04-16T13:18:36.152Z,10.45
2023-04-16T13:21:02.567Z,10.36
2023-04-16T13:23:29.109Z,10.40
2023-04-16T13:25:55.421Z,10.65
2023-04-16T13:28:21.732Z,10.34
2023-04-16T13:30:48.252Z,10.30
2023-04-16T13:33:14.555Z,10.23
2023-04-16T13:35:40.883Z,10.53
2023-04-16T13:38:07.313Z,10.59
2023-04-16T13:40:33.634Z,10.59
2023-04-16T13:42:59.954Z,10.73
2023-04-16T13:45:26.580Z,10.90
2023-04-16T13:47:53.045Z,10.76
2023-04-16T13:50:19.503Z,10.90
2023-04-16T13:52:45.872Z,11.00
2023-04-16T13:55:12.194Z,11.01
2023-04-16T13:57:38.806Z,10.85
2023-04-16T14:00:05.831Z,11.13
2023-04-16T14:02:32.250Z,11.15
2023-04-16T14:04:58.672Z,11.24
2023-04-16T14:07:24.980Z,11.56
2023-04-16T14:09:51.295Z,11.79
2023-04-16T14:12:17.622Z,11.72
2023-04-16T14:14:43.939Z,11.57
2023-04-16T14:17:10.368Z,11.36
2023-04-16T14:19:36.686Z,11.14
2023-04-16T14:22:02.983Z,11.04
2023-04-16T14:24:29.335Z,11.29
2023-04-16T14:26:55.874Z,11.41
2023-04-16T14:29:22.210Z,11.48
2023-04-16T14:31:48.547Z,11.47
2023-04-16T14:34:14.876Z,11.35
2023-04-16T14:36:41.200Z,11.71
2023-04-16T14:39:07.645Z,11.73
2023-04-16T14:41:34.000Z,11.82
2023-04-16T14:44:00.319Z,11.86
2023-04-16T14:46:26.614Z,11.91
2023-04-16T14:48:53.212Z,11.85
2023-04-16T14:51:19.539Z,11.90
2023-04-16T14:53:45.863Z,11.96
2023-04-16T14:56:12.161Z,11.79
2023-04-16T14:58:39.446Z,11.39
2023-04-16T15:01:05.906Z,11.55
2023-04-16T15:03:32.587Z,11.46
2023-04-16T15:05:59.396Z,11.41
2023-04-16T15:08:25.768Z,11.58
2023-04-16T15:10:52.093Z,11.41
2023-04-16T15:13:18.514Z,11.13
2023-04-16T15:15:44.889Z,11.07
2023-04-16T15:18:11.273Z,11.39
2023-04-16T15:20:37.593Z,11.37
2023-04-16T15:23:04.084Z,11.39
2023-04-16T15:25:30.381Z,11.24
2023-04-16T15:27:56.706Z,11.40
2023-04-16T15:30:22.999Z,11.38
2023-04-16T15:32:49.319Z,11.35
2023-04-16T15:35:15.651Z,11.43
2023-04-16T15:37:41.974Z,11.35
2023-04-16T15:40:08.444Z,11.34
2023-04-16T15:42:34.780Z,11.42
2023-04-16T15:45:01.106Z,11.56
2023-04-16T15:47:27.422Z,11.70
2023-04-16T15:49:53.805Z,11.57
2023-04-16T15:52:20.255Z,11.49
2023-04-16T15:54:46.625Z,11.41
2023-04-16T15:57:12.922Z,11.41
2023-04-16T15:59:39.226Z,11.20
2023-04-16T16:02:05.618Z,11.44
2023-04-16T16:04:32.515Z,11.12
2023-04-16T16:06:58.958Z,11.04
2023-04-16T16:09:25.301Z,11.17
2023-04-16T16:11:55.218Z,10.99
2023-04-16T16:14:22.325Z,11.24
2023-04-16T16:16:48.945Z,11.29
2023-04-16T16:19:15.336Z,11.38
2023-04-16T16:21:41.643Z,11.39
2023-04-16T16:24:07.938Z,11.34
2023-04-16T16:26:34.232Z,11.22
2023-04-16T16:29:01.954Z,11.16
2023-04-16T16:31:28.300Z,11.18
2023-04-16T16:33:54.612Z,11.37
2023-04-16T16:36:21.464Z,11.24
2023-04-16T16:38:47.751Z,11.24
2023-04-16T16:41:14.188Z,11.47
2023-04-16T16:43:40.480Z,10.99
2023-04-16T16:46:06.786Z,10.71
2023-04-16T16:48:33.493Z,11.09
2023-04-16T16:50:59.791Z,11.39
2023-04-16T16:53:26.069Z,11.09
2023-04-16T16:55:52.348Z,11.18
2023-04-16T16:58:18.652Z,11.43
2023-04-16T17:00:44.987Z,11.32
2023-04-16T17:03:11.573Z,11.49
2023-04-16T17:05:38.059Z,11.53
2023-04-16T17:08:04.508Z,11.54
2023-04-16T17:10:30.799Z,11.50
2023-04-16T17:12:57.110Z,11.44
2023-04-16T17:15:23.447Z,11.38
2023-04-16T17:17:49.964Z,11.42
2023-04-16T17:20:16.392Z,11.29
2023-04-16T17:22:42.718Z,11.31
2023-04-16T17:25:09.318Z,11.19
2023-04-16T17:27:35.671Z,11.17
2023-04-16T17:30:03.729Z,11.21
2023-04-16T17:32:30.715Z,11.12
2023-04-16T17:34:57.223Z,11.15
2023-04-16T17:37:23.568Z,11.13
2023-04-16T17:39:50.008Z,11.10
2023-04-16T17:42:16.399Z,11.02
2023-04-16T17:44:42.851Z,11.12
2023-04-16T17:47:09.224Z,11.09
2023-04-16T17:49:35.529Z,11.02
2023-04-16T17:52:01.942Z,10.95
2023-04-16T17:54:28.384Z,10.98
2023-04-16T17:56:54.688Z,10.90
2023-04-16T17:59:21.648Z,10.80
2023-04-16T18:01:48.036Z,10.75
2023-04-16T18:04:14.675Z,10.82
2023-04-16T18:06:41.389Z,10.79
2023-04-16T18:09:07.716Z,10.75
2023-04-16T18:11:34.009Z,10.97
2023-04-16T18:14:00.315Z,10.85
2023-04-16T18:16:26.765Z,10.74
2023-04-16T18:18:53.120Z,10.78
2023-04-16T18:21:19.758Z,10.78
2023-04-16T18:23:46.084Z,10.70
2023-04-16T18:26:12.849Z,10.62
2023-04-16T18:28:39.216Z,10.65
2023-04-16T18:31:05.589Z,10.54
2023-04-16T18:36:01.723Z,10.45
2023-04-16T18:38:28.171Z,10.40
2023-04-16T18:40:54.477Z,10.49
2023-04-16T18:43:20.790Z,10.37
2023-04-16T18:45:47.091Z,10.45
2023-04-16T18:48:13.412Z,10.51
2023-04-16T18:50:39.706Z,10.46
2023-04-16T18:53:06.179Z,10.40
2023-04-16T18:55:32.488Z,10.29
2023-04-16T18:57:58.802Z,10.25
2023-04-16T19:00:25.249Z,10.29
2023-04-16T19:02:51.651Z,10.35
2023-04-16T19:05:18.123Z,10.32
2023-04-16T19:07:44.425Z,10.03
2023-04-16T19:10:10.848Z,10.14
2023-04-16T19:12:37.167Z,10.01
2023-04-16T19:15:04.578Z,10.03
2023-04-16T19:17:30.888Z,10.07
2023-04-16T19:19:57.344Z,9.83
2023-04-16T19:22:23.672Z,9.85
2023-04-16T19:24:49.975Z,9.84
2023-04-16T19:27:16.304Z,9.99
2023-04-16T19:29:42.603Z,10.10
2023-04-16T19:32:08.997Z,10.09
2023-04-16T19:34:35.345Z,10.12
2023-04-16T19:37:01.644Z,10.03
2023-04-16T19:39:28.071Z,9.78
2023-04-16T19:41:54.360Z,9.93
2023-04-16T19:44:20.695Z,9.80
2023-04-16T19:46:46.992Z,10.05
2023-04-16T19:49:13.541Z,9.89
2023-04-16T19:51:39.958Z,9.95
2023-04-16T19:54:06.275Z,9.84
2023-04-16T19:56:32.627Z,9.83
2023-04-16T19:58:58.927Z,9.81
2023-04-16T20:01:25.253Z,9.88
2023-04-16T20:03:51.627Z,10.00
2023-04-16T20:06:17.971Z,9.76
2023-04-16T20:08:44.266Z,9.67
2023-04-16T20:11:10.636Z,9.90
2023-04-16T20:13:36.939Z,9.70
2023-04-16T20:16:03.532Z,9.84
2023-04-16T20:18:29.844Z,9.96
2023-04-16T20:20:56.156Z,9.82
2023-04-16T20:23:22.453Z,9.80
2023-04-16T20:25:48.780Z,9.81
2023-04-16T20:28:15.068Z,9.80
2023-04-16T20:30:41.605Z,9.69
2023-04-16T20:33:08.504Z,9.67
2023-04-16T20:35:34.977Z,9.50
2023-04-16T20:38:01.376Z,9.51
2023-04-16T20:40:28.072Z,9.63
2023-04-16T20:42:54.381Z,9.57
2023-04-16T20:45:20.673Z,9.57
2023-04-16T20:47:47.074Z,9.62
2023-04-16T20:50:13.535Z,9.41
2023-04-16T20:52:39.847Z,9.27
2023-04-16T20:55:06.814Z,9.38
2023-04-16T20:57:33.115Z,8.99
2023-04-16T20:59:59.419Z,8.93
2023-04-16T21:02:26.011Z,9.34
2023-04-16T21:04:52.538Z,9.23
2023-04-16T21:07:18.901Z,9.21
2023-04-16T21:09:45.216Z,8.87
2023-04-16T21:12:11.511Z,8.75
2023-04-16T21:14:37.818Z,8.80
2023-04-16T21:17:04.114Z,8.79
2023-04-16T21:19:30.511Z,8.77
2023-04-16T21:21:56.811Z,8.92
2023-04-16T21:24:23.113Z,8.90
2023-04-16T21:26:49.451Z,9.07
2023-04-16T21:29:15.773Z,9.17
2023-04-16T21:31:42.128Z,8.71
2023-04-16T21:34:08.468Z,8.91
2023-04-16T21:36:34.777Z,8.86
2023-04-16T21:39:01.085Z,8.94
2023-04-16T21:41:27.554Z,8.81
2023-04-16T21:43:53.898Z,8.66
2023-04-16T21:46:20.245Z,8.62
2023-04-16T21:48:46.542Z,8.71
2023-04-16T21:51:12.849Z,8.78
2023-04-16T21:53:39.187Z,8.80
2023-04-16T21:56:06.304Z,8.74
2023-04-16T21:58:32.611Z,8.49
2023-04-16T22:00:58.920Z,8.47
2023-04-16T22:03:25.367Z,8.51
2023-04-16T22:05:57.571Z,8.52
2023-04-16T22:08:25.162Z,8.21
2023-04-16T22:10:51.616Z,8.55
2023-04-16T22:13:18.019Z,8.24
2023-04-16T22:15:44.520Z,8.38
2023-04-16T22:18:10.825Z,8.26
2023-04-16T22:20:37.149Z,8.31
2023-04-16T22:23:03.445Z,8.29
2023-04-16T22:25:29.782Z,8.17
2023-04-16T22:27:56.114Z,8.49
2023-04-16T22:30:22.469Z,8.51
2023-04-16T22:32:48.894Z,8.74
2023-04-16T22:35:15.342Z,8.22
2023-04-16T22:37:41.666Z,8.42
2023-04-16T22:40:08.656Z,8.54
2023-04-16T22:42:35.233Z,8.70
2023-04-16T22:45:01.555Z,8.44
2023-04-16T22:47:27.953Z,8.60
2023-04-16T22:49:54.337Z,8.70
2023-04-16T22:52:20.636Z,8.81
2023-04-16T22:54:46.934Z,8.64
2023-04-16T22:57:13.255Z,8.57
2023-04-16T22:59:39.546Z,8.66
2023-04-16T23:02:05.951Z,8.73
2023-04-16T23:04:32.481Z,8.66
2023-04-16T23:06:58.981Z,8.52
2023-04-16T23:09:25.283Z,8.63
2023-04-16T23:11:51.631Z,8.59
2023-04-16T23:14:17.971Z,8.56
2023-04-16T23:16:44.279Z,8.50
2023-04-16T23:19:10.831Z,8.51
2023-04-16T23:21:37.350Z,8.48
2023-04-16T23:24:03.869Z,8.51
2023-04-16T23:26:30.165Z,8.50
2023-04-16T23:28:56.464Z,8.30
2023-04-16T23:31:22.803Z,8.27
2023-04-16T23:33:49.180Z,8.22
2023-04-16T23:36:15.489Z,8.34
2023-04-16T23:38:41.865Z,8.37
2023-04-16T23:41:08.177Z,8.45
2023-04-16T23:43:34.482Z,8.12
2023-04-16T23:46:00.951Z,8.38
2023-04-16T23:48:27.734Z,8.16
2023-04-16T23:50:54.165Z,8.24
2023-04-16T23:53:20.492Z,8.37
2023-04-16T23:55:46.796Z,8.38
2023-04-16T23:58:13.108Z,8.28
